Time;durP1;ratioP1;P1;durP2;ratioP2;P2;SDS_P1;SDS_P2;PMS_P1;PMS_P2;Temp;Humidity;BMP_temperature;BMP_pressure;BME280_temperature;BME280_humidity;BME280_pressure;Samples;Min_cycle;Max_cycle;Signal;HPM_P1;HPM_P2
2021/06/18 00:01:54;;;;;;;22.63;13.88;;;;;;;22.15;43.88;98756.63;5090111;28;20298;-72
2021/06/18 00:04:20;;;;;;;24.42;14.70;;;;;;;22.11;44.18;98750.16;5091300;28;20126;-73
2021/06/18 00:06:45;;;;;;;22.75;13.93;;;;;;;22.08;44.07;98747.31;5091248;28;20038;-72
2021/06/18 00:09:10;;;;;;;21.60;12.82;;;;;;;22.06;44.01;98749.66;5091750;28;20020;-72
2021/06/18 00:11:36;;;;;;;23.40;13.70;;;;;;;22.03;44.19;98739.22;5091089;28;20119;-72
2021/06/18 00:14:02;;;;;;;24.33;14.77;;;;;;;22.00;44.53;98741.56;5093351;28;20412;-73
2021/06/18 00:16:27;;;;;;;22.05;14.32;;;;;;;21.99;44.48;98742.75;5092032;28;20043;-73
2021/06/18 00:18:53;;;;;;;22.23;13.98;;;;;;;21.97;44.62;98747.09;5091538;28;20024;-73
2021/06/18 00:21:18;;;;;;;22.83;13.02;;;;;;;21.91;44.61;98742.97;5090970;28;20016;-72
2021/06/18 00:23:44;;;;;;;22.73;13.07;;;;;;;21.86;44.66;98739.28;5091184;28;20590;-72
2021/06/18 00:26:09;;;;;;;19.52;12.52;;;;;;;21.80;45.03;98732.38;5091011;28;20040;-72
2021/06/18 00:28:35;;;;;;;24.55;13.88;;;;;;;21.81;45.03;98731.19;5090876;28;20040;-73
2021/06/18 00:31:01;;;;;;;17.48;11.95;;;;;;;21.78;45.25;98726.34;5092847;28;20372;-72
2021/06/18 00:33:29;;;;;;;25.42;13.13;;;;;;;21.70;45.31;98721.75;5090715;28;20102;-72
2021/06/18 00:35:54;;;;;;;19.67;12.60;;;;;;;21.66;45.33;98726.44;5090839;28;20412;-71
2021/06/18 00:38:20;;;;;;;21.75;13.63;;;;;;;21.63;45.56;98722.41;5090133;28;20040;-71
2021/06/18 00:40:46;;;;;;;19.98;12.73;;;;;;;21.62;45.68;98726.38;5091143;28;20161;-72
2021/06/18 00:43:12;;;;;;;23.05;13.88;;;;;;;21.61;45.83;98724.72;5090215;28;20499;-72
2021/06/18 00:45:37;;;;;;;22.83;12.75;;;;;;;21.61;45.91;98724.72;5090636;28;20036;-72
2021/06/18 00:48:04;;;;;;;21.27;12.70;;;;;;;21.61;45.79;98729.50;5090487;28;20780;-72
2021/06/18 00:50:30;;;;;;;21.17;12.93;;;;;;;21.59;45.79;98727.06;5090884;28;20362;-72
2021/06/18 00:52:56;;;;;;;19.80;14.02;;;;;;;21.60;46.13;98728.69;5089255;28;20484;-72
2021/06/18 00:55:22;;;;;;;17.85;12.00;;;;;;;21.60;46.09;98728.69;5090937;28;20032;-72
2021/06/18 00:57:47;;;;;;;22.05;13.57;;;;;;;21.61;46.18;98732.28;5090608;28;20024;-73
2021/06/18 01:00:13;;;;;;;19.15;12.13;;;;;;;21.60;46.03;98727.91;5090975;28;20063;-72
2021/06/18 01:02:39;;;;;;;21.63;13.05;;;;;;;21.56;45.97;98734.22;5090957;28;20016;-72
2021/06/18 01:05:11;;;;;;;19.20;12.57;;;;;;;21.53;46.02;98731.31;5090748;28;20400;-71
2021/06/18 01:07:52;;;;;;;21.10;13.02;;;;;;;21.50;46.17;98732.03;5089486;28;20028;-72
2021/06/18 01:10:48;;;;;;;18.67;12.75;;;;;;;21.47;46.05;98733.59;5088028;28;20031;-72
2021/06/18 01:13:32;;;;;;;19.58;12.95;;;;;;;21.44;46.26;98728.72;5087294;28;20212;-72
2021/06/18 01:16:11;;;;;;;18.88;12.20;;;;;;;21.45;46.25;98723.94;5089025;28;20081;-72
2021/06/18 01:18:45;;;;;;;21.13;13.38;;;;;;;21.41;46.24;98721.88;5088756;28;20024;-72
2021/06/18 01:21:18;;;;;;;20.58;12.60;;;;;;;21.39;46.69;98726.22;5085456;28;20027;-72
2021/06/18 01:24:05;;;;;;;20.58;12.75;;;;;;;21.36;46.37;98726.94;5089482;28;20027;-73
2021/06/18 01:26:48;;;;;;;18.92;12.80;;;;;;;21.34;46.66;98727.31;5088840;28;20533;-73
2021/06/18 01:29:13;;;;;;;18.98;12.23;;;;;;;21.32;46.76;98729.66;5085877;28;20158;-74
2021/06/18 01:31:47;;;;;;;17.98;13.65;;;;;;;21.30;46.66;98720.84;5088701;28;20032;-73
2021/06/18 01:34:17;;;;;;;21.95;12.80;;;;;;;21.29;46.63;98726.78;5089022;28;20031;-73
2021/06/18 01:36:46;;;;;;;20.05;12.68;;;;;;;21.24;46.98;98722.28;5089661;28;20032;-73
2021/06/18 01:39:12;;;;;;;22.45;13.82;;;;;;;21.25;46.82;98712.75;5088460;28;20110;-73
2021/06/18 01:41:40;;;;;;;23.15;14.48;;;;;;;21.26;46.86;98717.16;5087901;28;20024;-74
2021/06/18 01:44:07;;;;;;;20.67;14.05;;;;;;;21.25;46.93;98715.53;5090206;28;20563;-73
2021/06/18 01:46:36;;;;;;;19.33;12.98;;;;;;;21.25;47.31;98715.53;5089652;28;20404;-74
2021/06/18 01:49:10;;;;;;;18.98;13.02;;;;;;;21.24;47.20;98719.50;5091194;28;20099;-75
2021/06/18 01:51:37;;;;;;;23.38;13.45;;;;;;;21.20;47.23;98710.22;5090913;28;20016;-74
2021/06/18 01:54:08;;;;;;;21.00;13.77;;;;;;;21.18;47.12;98718.16;5091437;28;20024;-74
2021/06/18 01:56:35;;;;;;;23.35;14.05;;;;;;;21.15;47.15;98716.09;5090837;28;20036;-74
2021/06/18 01:59:03;;;;;;;24.63;14.80;;;;;;;21.11;47.43;98716.81;5091193;28;20020;-74
2021/06/18 02:01:39;;;;;;;22.98;14.15;;;;;;;21.08;47.31;98711.94;5089407;28;20039;-74
2021/06/18 02:04:06;;;;;;;24.30;14.80;;;;;;;21.07;47.58;98706.75;5089548;28;20357;-74
2021/06/18 02:06:33;;;;;;;22.98;12.95;;;;;;;21.04;47.61;98711.03;5089119;28;20016;-74
2021/06/18 02:09:00;;;;;;;22.08;13.77;;;;;;;21.03;47.51;98712.22;5089422;28;20400;-74
2021/06/18 02:11:28;;;;;;;21.23;13.50;;;;;;;21.01;47.79;98708.97;5088888;28;20051;-74
2021/06/18 02:13:55;;;;;;;20.30;13.77;;;;;;;20.98;47.62;98709.72;5089254;28;20081;-75
2021/06/18 02:16:24;;;;;;;18.50;13.20;;;;;;;20.95;47.65;98714.03;5088067;28;20026;-74
2021/06/18 02:18:49;;;;;;;21.13;14.23;;;;;;;20.95;48.02;98714.03;5087575;28;20031;-74
2021/06/18 02:21:16;;;;;;;21.23;13.98;;;;;;;20.93;47.85;98724.72;5089525;28;20036;-74
2021/06/18 02:23:42;;;;;;;22.55;14.02;;;;;;;20.89;48.03;98714.66;5088731;28;20032;-74
2021/06/18 02:26:09;;;;;;;22.63;14.77;;;;;;;20.85;47.94;98716.53;5090388;28;20040;-74
2021/06/18 02:28:35;;;;;;;22.17;14.75;;;;;;;20.80;47.99;98714.81;5093243;28;20020;-74
2021/06/18 02:31:02;;;;;;;20.02;13.70;;;;;;;20.78;48.03;98711.59;5093685;28;20016;-74
2021/06/18 02:33:28;;;;;;;22.65;14.35;;;;;;;20.77;48.27;98719.13;5092076;28;20027;-74
2021/06/18 02:35:53;;;;;;;22.45;14.40;;;;;;;20.75;48.40;98718.66;5093393;28;20028;-74
2021/06/18 02:38:19;;;;;;;22.20;14.13;;;;;;;20.73;48.36;98709.84;5093053;28;20525;-74
2021/06/18 02:40:45;;;;;;;27.30;14.70;;;;;;;20.73;48.63;98717.41;5093129;28;20073;-74
2021/06/18 02:43:11;;;;;;;24.80;14.23;;;;;;;20.72;48.68;98724.16;5092945;28;20051;-74
2021/06/18 02:45:36;;;;;;;19.98;13.20;;;;;;;20.71;48.68;98723.31;5092825;28;20020;-74
2021/06/18 02:48:24;;;;;;;22.90;15.32;;;;;;;20.70;48.62;98732.84;5093179;28;20020;-74
2021/06/18 02:51:15;;;;;;;24.60;15.15;;;;;;;20.69;48.66;98731.22;5092974;28;20042;-74
2021/06/18 02:54:20;;;;;;;24.38;14.15;;;;;;;20.67;48.77;98728.81;5091826;28;20129;-74
2021/06/18 02:56:57;;;;;;;22.35;13.95;;;;;;;20.65;48.67;98733.94;5092561;28;20039;-74
2021/06/18 02:59:42;;;;;;;19.58;14.07;;;;;;;20.61;48.92;98727.47;5092873;28;20468;-74
2021/06/18 03:02:14;;;;;;;22.75;13.77;;;;;;;20.59;48.86;98731.75;5090314;28;20027;-74
2021/06/18 03:04:43;;;;;;;19.08;12.80;;;;;;;20.57;49.06;98728.53;5092680;28;20105;-74
2021/06/18 03:07:12;;;;;;;24.23;14.70;;;;;;;20.56;49.16;98732.50;5090503;28;20020;-74
2021/06/18 03:09:42;;;;;;;24.10;14.35;;;;;;;20.56;49.12;98735.28;5092745;28;20480;-74
2021/06/18 03:12:11;;;;;;;29.25;14.68;;;;;;;20.55;49.21;98737.25;5088905;28;20081;-74
2021/06/18 03:14:37;;;;;;;25.17;15.10;;;;;;;20.54;49.32;98738.41;5091029;28;20082;-74
2021/06/18 03:17:06;;;;;;;23.88;14.68;;;;;;;20.51;49.32;98739.13;5092195;28;20097;-74
2021/06/18 03:19:41;;;;;;;;;;;;;;;20.48;49.19;98737.88;5092912;28;20028;-74
2021/06/18 03:22:07;;;;;;;26.95;14.98;;;;;;;20.44;49.68;98736.13;5091173;28;20364;-74
2021/06/18 03:24:34;;;;;;;20.52;14.90;;;;;;;20.41;49.62;98736.84;5092633;28;20456;-74
2021/06/18 03:27:01;;;;;;;27.38;14.85;;;;;;;20.43;49.59;98731.72;5091966;28;20138;-74
2021/06/18 03:29:28;;;;;;;23.98;14.88;;;;;;;20.42;49.92;98733.72;5092739;28;20418;-75
2021/06/18 03:31:55;;;;;;;26.50;15.88;;;;;;;20.44;49.95;98725.81;5091771;28;20617;-75
2021/06/18 03:34:22;;;;;;;27.63;14.65;;;;;;;20.46;50.00;98734.63;5095281;28;20036;-74
2021/06/18 03:36:48;;;;;;;28.00;15.40;;;;;;;20.49;50.10;98731.13;5089709;28;20057;-74
2021/06/18 03:39:14;;;;;;;23.33;15.32;;;;;;;20.50;50.38;98735.53;5092518;28;20020;-75
2021/06/18 03:41:39;;;;;;;27.13;16.13;;;;;;;20.49;50.06;98738.66;5090993;28;20024;-74
2021/06/18 03:44:05;;;;;;;25.45;15.63;;;;;;;20.50;50.04;98743.88;5091437;28;20035;-73
2021/06/18 03:46:32;;;;;;;28.08;16.10;;;;;;;20.51;50.21;98742.72;5092061;28;20465;-73
2021/06/18 03:48:59;;;;;;;25.27;15.63;;;;;;;20.55;50.34;98748.38;5090067;28;20027;-74
2021/06/18 03:51:24;;;;;;;26.52;14.85;;;;;;;20.59;50.54;98745.69;5092627;28;20456;-73
2021/06/18 03:53:50;;;;;;;26.15;15.35;;;;;;;20.63;50.65;98750.19;5091087;28;20040;-73
2021/06/18 03:56:17;;;;;;;29.60;15.85;;;;;;;20.64;50.72;98743.47;5091441;28;20078;-73
2021/06/18 03:58:45;;;;;;;24.90;15.05;;;;;;;20.67;50.54;98753.06;5091417;28;20032;-73
2021/06/18 04:01:12;;;;;;;21.40;14.40;;;;;;;20.70;50.78;98760.72;5089824;28;20032;-73
2021/06/18 04:03:41;;;;;;;22.60;14.07;;;;;;;20.73;50.84;98754.44;5091600;28;20097;-73
2021/06/18 04:06:08;;;;;;;30.45;15.98;;;;;;;20.76;50.82;98761.28;5092812;28;20036;-74
2021/06/18 04:08:35;;;;;;;26.58;15.57;;;;;;;20.79;50.80;98758.63;5091651;28;20047;-74
2021/06/18 04:11:00;;;;;;;27.00;16.77;;;;;;;20.86;51.05;98760.78;5092930;28;20088;-74
2021/06/18 04:13:26;;;;;;;22.17;15.10;;;;;;;20.93;51.27;98765.75;5091891;28;20099;-73
2021/06/18 04:15:51;;;;;;;23.02;15.35;;;;;;;20.95;51.06;98758.63;5092146;28;20032;-74
2021/06/18 04:18:22;;;;;;;28.55;16.02;;;;;;;20.98;51.04;98762.69;5092135;28;20024;-74
2021/06/18 04:20:50;;;;;;;26.17;16.75;;;;;;;21.03;51.30;98770.75;5093121;28;20028;-73
2021/06/18 04:23:15;;;;;;;24.35;15.93;;;;;;;21.08;51.21;98773.28;5090527;28;20489;-74
2021/06/18 04:25:40;;;;;;;27.35;16.90;;;;;;;21.13;51.22;98772.22;5092653;28;20157;-74
2021/06/18 04:28:06;;;;;;;29.10;16.17;;;;;;;21.16;51.51;98770.69;5091672;28;20498;-74
2021/06/18 04:30:32;;;;;;;26.83;16.02;;;;;;;21.20;51.06;98777.97;5091321;28;20479;-73
2021/06/18 04:32:58;;;;;;;29.75;16.50;;;;;;;21.23;51.68;98771.66;5091710;28;20032;-73
2021/06/18 04:35:23;;;;;;;30.45;16.73;;;;;;;21.27;51.39;98772.56;5092607;28;20038;-75
2021/06/18 04:37:48;;;;;;;26.85;16.67;;;;;;;21.31;51.53;98769.88;5091565;28;20479;-74
2021/06/18 04:40:14;;;;;;;29.23;17.38;;;;;;;21.34;51.51;98763.59;5091366;28;20547;-74
2021/06/18 04:42:39;;;;;;;28.42;16.73;;;;;;;21.39;51.53;98770.84;5091248;28;20429;-73
2021/06/18 04:45:06;;;;;;;33.63;16.42;;;;;;;21.40;51.50;98759.31;5092723;28;20039;-73
2021/06/18 04:47:31;;;;;;;28.70;16.55;;;;;;;21.44;51.44;98770.59;5091050;28;20016;-73
2021/06/18 04:49:57;;;;;;;30.23;17.77;;;;;;;21.50;51.82;98773.91;5091288;28;20050;-73
2021/06/18 04:52:23;;;;;;;28.02;16.65;;;;;;;21.57;51.96;98774.06;5085126;28;20024;-73
2021/06/18 04:54:54;;;;;;;27.77;16.65;;;;;;;21.64;51.54;98779.03;5091147;28;20032;-73
2021/06/18 04:57:20;;;;;;;29.92;16.90;;;;;;;21.69;51.76;98773.19;5092106;28;20051;-75
2021/06/18 04:59:46;;;;;;;28.17;17.05;;;;;;;21.73;51.83;98768.50;5092445;28;20070;-73
2021/06/18 05:02:11;;;;;;;33.30;17.88;;;;;;;21.77;51.73;98771.38;5090227;28;20077;-74
2021/06/18 05:04:36;;;;;;;26.50;16.27;;;;;;;21.78;51.65;98773.00;5092340;28;20048;-74
2021/06/18 05:07:02;;;;;;;27.83;16.58;;;;;;;21.83;51.71;98778.28;5091978;28;20506;-74
2021/06/18 05:09:27;;;;;;;26.67;16.23;;;;;;;21.86;51.92;98771.97;5091668;28;20069;-75
2021/06/18 05:11:52;;;;;;;24.33;16.35;;;;;;;21.91;51.93;98771.69;5091262;28;20434;-73
2021/06/18 05:14:18;;;;;;;25.45;16.85;;;;;;;21.97;52.00;98786.97;5090698;28;20133;-73
2021/06/18 05:16:43;;;;;;;27.52;17.35;;;;;;;22.04;51.91;98782.72;5090978;28;20434;-73
2021/06/18 05:19:10;;;;;;;31.38;17.33;;;;;;;22.10;51.94;98779.28;5091883;28;20028;-73
2021/06/18 05:21:35;;;;;;;27.30;16.40;;;;;;;22.19;51.92;98781.03;5089527;28;20395;-74
2021/06/18 05:24:01;;;;;;;30.33;16.15;;;;;;;22.23;51.89;98777.13;5089060;28;20110;-74
2021/06/18 05:26:31;;;;;;;27.73;16.15;;;;;;;22.30;51.96;98788.47;5091445;28;20152;-74
2021/06/18 05:28:57;;;;;;;24.63;14.80;;;;;;;22.36;51.96;98793.78;5091634;28;20020;-73
2021/06/18 05:31:23;;;;;;;28.30;16.67;;;;;;;22.42;51.90;98790.31;5091139;28;20027;-73
2021/06/18 05:33:48;;;;;;;27.13;15.50;;;;;;;22.50;52.09;98784.88;5090157;28;20038;-74
2021/06/18 05:36:14;;;;;;;24.30;15.52;;;;;;;22.55;51.92;98791.00;5091534;28;20036;-74
2021/06/18 05:38:39;;;;;;;24.58;16.05;;;;;;;22.60;51.91;98795.47;5090681;28;20047;-73
2021/06/18 05:41:05;;;;;;;22.73;15.35;;;;;;;22.66;51.89;98799.59;5090881;28;20077;-74
2021/06/18 05:43:30;;;;;;;28.38;15.63;;;;;;;22.74;51.84;98792.16;5091061;28;20120;-73
2021/06/18 05:45:55;;;;;;;25.13;16.50;;;;;;;22.81;51.68;98789.50;5091472;28;20498;-74
2021/06/18 05:48:20;;;;;;;39.78;15.63;;;;;;;22.88;51.81;98792.44;5090659;28;20499;-74
2021/06/18 05:50:46;;;;;;;25.15;15.90;;;;;;;22.94;51.79;98786.53;5090836;28;20027;-73
2021/06/18 05:53:11;;;;;;;23.25;14.02;;;;;;;23.01;51.74;98786.66;5090494;28;20024;-73
2021/06/18 05:55:36;;;;;;;20.92;14.05;;;;;;;23.10;51.71;98781.63;5091188;28;20422;-73
2021/06/18 05:58:02;;;;;;;22.92;15.30;;;;;;;23.15;51.64;98788.91;5090618;28;20028;-73
2021/06/18 06:00:27;;;;;;;22.13;14.80;;;;;;;23.22;51.63;98783.47;5090547;28;20380;-73
2021/06/18 06:02:54;;;;;;;21.23;13.57;;;;;;;23.30;51.55;98789.97;5091569;28;20129;-73
2021/06/18 06:05:19;;;;;;;22.50;14.20;;;;;;;23.36;51.50;98788.50;5089660;28;20048;-73
2021/06/18 06:07:46;;;;;;;25.35;14.25;;;;;;;23.43;51.52;98793.38;5088629;28;20089;-73
2021/06/18 06:10:12;;;;;;;27.42;15.32;;;;;;;23.48;51.32;98799.47;5091379;28;20035;-73
2021/06/18 06:12:38;;;;;;;26.52;14.45;;;;;;;23.55;51.20;98786.78;5084397;28;20039;-73
2021/06/18 06:15:04;;;;;;;26.85;15.35;;;;;;;23.60;51.32;98797.66;5089074;28;20028;-74
2021/06/18 06:17:30;;;;;;;24.20;14.98;;;;;;;23.69;51.36;98791.78;5087650;28;20036;-74
2021/06/18 06:19:55;;;;;;;23.02;14.18;;;;;;;23.75;51.43;98802.28;5088242;28;20032;-73
2021/06/18 06:22:21;;;;;;;22.85;14.60;;;;;;;23.78;51.19;98787.53;5088141;28;20020;-73
2021/06/18 06:24:46;;;;;;;27.58;16.23;;;;;;;23.85;51.25;98795.22;5088390;28;20063;-72
2021/06/18 06:27:11;;;;;;;22.95;16.23;;;;;;;23.92;51.05;98794.50;5088657;28;20060;-72
2021/06/18 06:29:37;;;;;;;23.30;15.25;;;;;;;24.00;51.19;98790.66;5087572;28;20062;-72
2021/06/18 06:32:03;;;;;;;26.77;15.52;;;;;;;24.06;51.17;98791.94;5089709;28;20123;-73
2021/06/18 06:34:28;;;;;;;22.23;14.68;;;;;;;24.14;51.02;98780.84;5090604;28;20036;-73
2021/06/18 06:36:53;;;;;;;20.52;14.43;;;;;;;24.20;50.96;98784.94;5100512;28;20089;-72
2021/06/18 06:39:19;;;;;;;25.17;15.60;;;;;;;24.26;51.01;98786.19;5091182;28;20035;-71
2021/06/18 06:41:44;;;;;;;23.40;14.68;;;;;;;24.33;50.95;98783.47;5090818;28;20039;-73
2021/06/18 06:44:10;;;;;;;21.67;13.77;;;;;;;24.39;50.65;98783.97;5091692;28;20027;-73
2021/06/18 06:46:36;;;;;;;19.02;13.27;;;;;;;24.47;50.73;98791.25;5078122;28;20135;-75
2021/06/18 06:49:02;;;;;;;22.75;13.40;;;;;;;24.53;50.52;98783.34;5083456;28;20040;-72
2021/06/18 06:51:27;;;;;;;20.33;14.68;;;;;;;24.62;50.67;98789.44;5088968;28;20634;-72
2021/06/18 06:53:53;;;;;;;23.17;16.08;;;;;;;24.71;50.61;98791.13;5084613;28;20032;-74
2021/06/18 06:56:19;;;;;;;23.88;13.88;;;;;;;24.81;50.84;98796.06;5088145;28;20035;-74
2021/06/18 06:58:44;;;;;;;22.95;15.10;;;;;;;24.89;50.62;98791.34;5088274;28;20085;-74
2021/06/18 07:01:11;;;;;;;20.73;14.15;;;;;;;24.96;50.68;98795.03;5083363;28;20034;-72
2021/06/18 07:03:37;;;;;;;15.35;11.32;;;;;;;25.00;49.98;98783.06;5088092;28;20040;-76
2021/06/18 07:06:03;;;;;;;17.45;12.10;;;;;;;25.06;49.80;98787.13;5088370;28;20077;-75
2021/06/18 07:08:28;;;;;;;17.73;12.35;;;;;;;25.11;50.02;98790.38;5088738;28;20054;-73
2021/06/18 07:10:54;;;;;;;18.77;12.35;;;;;;;25.19;49.65;98788.44;5087391;28;20445;-73
2021/06/18 07:13:19;;;;;;;21.63;13.25;;;;;;;25.23;49.55;98786.47;5089148;28;20119;-73
2021/06/18 07:15:46;;;;;;;18.30;13.95;;;;;;;25.29;49.32;98783.31;5088883;28;20043;-73
2021/06/18 07:18:12;;;;;;;19.80;13.07;;;;;;;25.36;49.12;98783.38;5081405;28;20164;-72
2021/06/18 07:20:38;;;;;;;23.88;13.32;;;;;;;25.45;49.34;98777.44;5089763;28;20031;-75
2021/06/18 07:23:03;;;;;;;16.60;12.25;;;;;;;25.50;49.37;98780.69;5090626;28;20024;-74
2021/06/18 07:25:28;;;;;;;17.60;11.63;;;;;;;25.60;49.15;98783.97;5091791;28;20442;-74
2021/06/18 07:27:54;;;;;;;17.58;11.77;;;;;;;25.67;48.59;98786.84;5092676;28;20032;-75
2021/06/18 07:30:20;;;;;;;18.30;12.00;;;;;;;25.69;48.67;98778.81;5093333;28;20468;-74
2021/06/18 07:32:45;;;;;;;17.48;11.63;;;;;;;25.76;48.18;98770.44;5093058;28;20110;-74
2021/06/18 07:35:11;;;;;;;19.15;12.20;;;;;;;25.85;47.68;98772.91;5091169;28;20057;-73
2021/06/18 07:37:36;;;;;;;17.77;11.85;;;;;;;25.92;47.66;98774.94;5091895;28;20031;-73
2021/06/18 07:40:02;;;;;;;19.15;12.35;;;;;;;26.00;47.88;98768.16;5092762;28;20373;-74
2021/06/18 07:42:28;;;;;;;18.15;11.35;;;;;;;26.11;47.65;98766.22;5086590;28;20020;-73
2021/06/18 07:44:53;;;;;;;13.93;10.00;;;;;;;26.20;47.54;98773.53;5089567;28;20108;-73
2021/06/18 07:47:19;;;;;;;24.27;12.93;;;;;;;26.26;47.12;98771.94;5090270;28;20024;-75
2021/06/18 07:49:44;;;;;;;17.30;11.85;;;;;;;26.31;47.13;98771.53;5088625;28;20475;-73
2021/06/18 07:52:09;;;;;;;21.95;12.40;;;;;;;26.36;46.74;98765.53;5090330;28;20032;-75
2021/06/18 07:54:35;;;;;;;89.15;13.70;;;;;;;26.41;46.75;98767.97;5090008;28;20123;-73
2021/06/18 07:57:00;;;;;;;18.08;11.45;;;;;;;26.44;46.17;98767.19;5089199;28;20052;-75
2021/06/18 07:59:25;;;;;;;18.13;11.88;;;;;;;26.48;46.28;98772.03;5086364;28;20050;-73
2021/06/18 08:01:51;;;;;;;22.00;11.90;;;;;;;26.55;45.74;98764.41;5087069;28;20024;-74
2021/06/18 08:04:16;;;;;;;17.33;11.18;;;;;;;26.61;45.54;98764.84;5081719;28;20052;-74
2021/06/18 08:06:42;;;;;;;17.90;11.68;;;;;;;26.68;45.73;98767.66;5087163;28;20051;-74
2021/06/18 08:09:07;;;;;;;17.02;11.10;;;;;;;26.75;45.04;98770.47;5086493;28;20064;-73
2021/06/18 08:11:33;;;;;;;16.80;10.40;;;;;;;26.79;44.86;98770.50;5088313;28;20031;-73
2021/06/18 08:13:58;;;;;;;15.13;10.60;;;;;;;26.81;44.73;98761.66;5090455;28;20031;-73
2021/06/18 08:16:23;;;;;;;16.20;10.70;;;;;;;26.85;44.78;98766.13;5090305;28;20042;-73
2021/06/18 08:18:49;;;;;;;17.30;11.73;;;;;;;26.92;44.68;98768.13;5090259;28;20100;-74
2021/06/18 08:21:14;;;;;;;17.90;11.68;;;;;;;27.00;44.70;98764.13;5090742;28;20089;-72
2021/06/18 08:23:40;;;;;;;17.55;12.63;;;;;;;27.09;44.50;98757.31;5088135;28;20044;-71
2021/06/18 08:26:05;;;;;;;17.48;12.15;;;;;;;27.16;44.26;98760.09;5086280;28;20047;-73
2021/06/18 08:28:31;;;;;;;17.00;11.43;;;;;;;27.21;43.74;98761.72;5088746;28;20088;-73
2021/06/18 08:30:57;;;;;;;17.15;11.30;;;;;;;27.27;43.74;98757.31;5086051;28;20032;-73
2021/06/18 08:33:23;;;;;;;14.82;10.10;;;;;;;27.32;43.85;98757.72;5087803;28;20028;-75
2021/06/18 08:35:48;;;;;;;14.25;11.15;;;;;;;27.37;43.23;98758.50;5089576;28;20695;-72
2021/06/18 08:38:14;;;;;;;16.27;11.07;;;;;;;27.41;43.02;98751.66;5087842;28;20410;-76
2021/06/18 08:40:40;;;;;;;16.83;11.70;;;;;;;27.44;42.67;98748.03;5085946;28;20651;-75
2021/06/18 08:43:06;;;;;;;16.85;11.27;;;;;;;27.51;42.38;98758.50;5088757;28;20036;-74
2021/06/18 08:45:32;;;;;;;16.65;10.52;;;;;;;27.54;42.12;98749.25;5089608;28;20024;-73
2021/06/18 08:47:57;;;;;;;15.30;10.88;;;;;;;27.59;41.99;98757.31;5088611;28;20039;-74
2021/06/18 08:50:23;;;;;;;20.23;11.63;;;;;;;27.64;42.00;98745.63;5088122;28;20016;-73
2021/06/18 08:52:57;;;;;;;20.08;10.73;;;;;;;27.71;41.94;98744.00;5088645;28;20039;-73
2021/06/18 08:55:24;;;;;;;17.15;11.23;;;;;;;27.77;41.58;98743.19;5088718;28;20391;-76
2021/06/18 08:57:56;;;;;;;15.00;10.43;;;;;;;27.84;41.39;98741.56;5084544;28;20028;-76
2021/06/18 09:00:23;;;;;;;17.30;9.60;;;;;;;27.87;41.07;98730.28;5085585;28;20106;-71
2021/06/18 09:02:49;;;;;;;13.23;9.65;;;;;;;27.94;41.17;98733.06;5087267;28;20473;-76
2021/06/18 09:05:15;;;;;;;17.40;10.63;;;;;;;28.02;40.99;98731.03;5088317;28;20051;-75
2021/06/18 09:07:47;;;;;;;16.00;10.38;;;;;;;28.10;41.29;98740.25;5085387;28;20403;-72
2021/06/18 09:10:32;;;;;;;14.98;9.98;;;;;;;28.17;40.85;98743.09;5088842;28;20046;-73
2021/06/18 09:13:18;;;;;;;14.55;9.77;;;;;;;28.22;40.71;98730.56;5088351;28;20024;-76
2021/06/18 09:15:55;;;;;;;16.00;10.23;;;;;;;28.28;40.12;98730.97;5086772;28;20032;-74
2021/06/18 09:18:35;;;;;;;15.90;10.57;;;;;;;28.29;39.71;98724.13;5087843;28;20111;-74
2021/06/18 09:21:01;;;;;;;17.08;9.40;;;;;;;28.36;39.68;98721.22;5086409;28;20047;-75
2021/06/18 09:23:31;;;;;;;14.57;10.15;;;;;;;28.42;39.52;98718.81;5088043;28;20036;-73
2021/06/18 09:26:18;;;;;;;14.90;10.35;;;;;;;28.50;39.97;98721.16;5089143;28;20715;-74
2021/06/18 09:28:55;;;;;;;12.18;9.38;;;;;;;28.59;39.65;98719.91;5084218;28;20153;-72
2021/06/18 09:31:29;;;;;;;16.45;11.40;;;;;;;28.64;39.28;98722.31;5081902;28;20103;-73
2021/06/18 09:33:55;;;;;;;16.33;10.30;;;;;;;28.69;39.28;98721.88;5086818;28;20480;-72
2021/06/18 09:36:20;;;;;;;15.45;11.70;;;;;;;28.76;39.17;98721.03;5082110;28;20093;-73
2021/06/18 09:38:54;;;;;;;15.95;10.32;;;;;;;28.84;39.02;98718.97;5091245;28;20116;-73
2021/06/18 09:41:33;;;;;;;14.95;10.43;;;;;;;28.92;39.29;98718.50;5083130;28;20032;-75
2021/06/18 09:44:03;;;;;;;;;;;;;;;28.96;38.93;98718.47;5089081;28;20166;-73
2021/06/18 09:46:53;;;;;;;16.02;11.27;;;;;;;29.02;38.93;98719.66;5084489;28;19916;-74
2021/06/18 09:49:27;;;;;;;14.25;10.02;;;;;;;29.11;38.90;98719.16;5084312;28;20081;-75
2021/06/18 09:51:54;;;;;;;17.00;10.68;;;;;;;29.18;39.04;98721.94;5085187;28;20055;-73
2021/06/18 09:54:20;;;;;;;14.48;10.32;;;;;;;29.30;38.98;98720.59;5086699;28;20508;-73
2021/06/18 09:56:45;;;;;;;16.25;10.10;;;;;;;29.38;38.66;98727.84;5087158;28;20115;-74
2021/06/18 09:59:22;;;;;;;16.63;10.95;;;;;;;29.48;38.99;98720.47;5087379;28;20491;-74
2021/06/18 10:01:54;;;;;;;13.90;10.48;;;;;;;29.60;38.59;98721.94;5079017;28;20024;-73
2021/06/18 10:04:20;;;;;;;17.73;10.75;;;;;;;29.70;37.80;98717.44;5086311;28;20044;-73
2021/06/18 10:06:46;;;;;;;14.23;10.68;;;;;;;29.77;37.09;98716.53;5084635;28;20610;-73
2021/06/18 10:09:16;;;;;;;16.10;10.50;;;;;;;29.81;37.10;98718.09;5085368;28;20028;-73
2021/06/18 10:11:43;;;;;;;14.60;10.52;;;;;;;29.85;36.91;98715.25;5084751;28;20416;-74
2021/06/18 10:14:09;;;;;;;17.55;10.80;;;;;;;29.91;36.38;98713.56;5083887;28;20021;-72
2021/06/18 10:16:35;;;;;;;17.02;10.60;;;;;;;29.98;36.67;98718.34;5087979;28;20096;-75
2021/06/18 10:19:02;;;;;;;12.68;9.63;;;;;;;30.10;36.91;98709.31;5088573;28;20028;-71
2021/06/18 10:21:42;;;;;;;14.02;10.48;;;;;;;30.23;36.83;98717.22;5086821;28;20081;-73
2021/06/18 10:24:09;;;;;;;13.75;10.02;;;;;;;30.33;36.52;98712.66;5087885;28;20119;-73
2021/06/18 10:26:35;;;;;;;14.40;10.32;;;;;;;30.37;36.71;98711.38;5087525;28;20028;-72
2021/06/18 10:29:01;;;;;;;14.43;10.70;;;;;;;30.46;36.77;98716.50;5086888;28;20036;-73
2021/06/18 10:31:32;;;;;;;12.23;10.20;;;;;;;30.53;36.08;98710.75;5086746;28;20051;-71
2021/06/18 10:34:09;;;;;;;16.50;10.70;;;;;;;30.59;36.22;98709.09;5086564;28;20044;-71
2021/06/18 10:36:35;;;;;;;13.38;9.60;;;;;;;30.63;36.27;98711.06;5086089;28;20048;-72
2021/06/18 10:39:15;;;;;;;11.82;9.82;;;;;;;30.68;35.99;98702.09;5088588;28;20044;-72
2021/06/18 10:41:49;;;;;;;13.50;9.88;;;;;;;30.74;35.58;98700.38;5085877;28;20060;-73
2021/06/18 10:44:39;;;;;;;11.40;9.10;;;;;;;30.78;35.21;98706.75;5087887;28;21280;-74
2021/06/18 10:47:06;;;;;;;14.50;10.95;;;;;;;30.85;35.29;98703.81;5088175;28;20218;-75
2021/06/18 10:49:39;;;;;;;14.48;10.20;;;;;;;30.95;35.31;98702.06;5089931;28;20028;-73
2021/06/18 10:52:38;;;;;;;12.45;10.13;;;;;;;31.00;35.38;98697.94;5088448;28;20029;-76
2021/06/18 10:55:04;;;;;;;13.43;9.68;;;;;;;31.08;35.13;98699.44;5088395;28;20047;-77
2021/06/18 10:57:30;;;;;;;11.48;9.55;;;;;;;31.16;34.79;98697.28;5090369;28;20122;-77
2021/06/18 11:00:20;;;;;;;13.63;9.18;;;;;;;31.19;34.67;98690.78;5091916;28;20100;-76
2021/06/18 11:02:46;;;;;;;14.50;10.00;;;;;;;31.26;34.73;98695.50;5087973;28;20052;-75
2021/06/18 11:05:14;;;;;;;14.73;9.60;;;;;;;31.25;34.43;98691.06;5090747;28;20090;-75
2021/06/18 11:07:41;;;;;;;12.32;8.82;;;;;;;31.29;33.97;98680.47;5089469;28;20087;-77
2021/06/18 11:10:09;;;;;;;12.77;9.13;;;;;;;31.35;34.14;98689.28;5086649;28;20043;-77
2021/06/18 11:12:38;;;;;;;13.80;9.68;;;;;;;31.41;34.08;98698.88;5089092;28;20094;-75
2021/06/18 11:15:07;;;;;;;12.70;9.77;;;;;;;31.44;33.76;98689.50;5090937;28;20043;-76
2021/06/18 11:17:47;;;;;;;12.32;9.55;;;;;;;31.44;33.78;98684.66;5088930;28;20031;-75
2021/06/18 11:20:17;;;;;;;12.90;9.48;;;;;;;31.50;33.89;98684.16;5091343;28;20024;-76
2021/06/18 11:22:47;;;;;;;10.63;9.27;;;;;;;31.46;33.73;98687.03;5089486;28;20032;-74
2021/06/18 11:25:36;;;;;;;13.30;10.07;;;;;;;31.47;33.69;98675.28;5090163;28;20128;-74